sensor_id;sensor_type;location;lat;lon;timestamp;P1;durP1;ratioP1;P2;durP2;ratioP2
68938;SDS011;59064;45.294;11.816;2023-08-06T00:00:24;2.00;;;0.60;;
68938;SDS011;59064;45.294;11.816;2023-08-06T00:02:50;3.40;;;0.90;;
68938;SDS011;59064;45.294;11.816;2023-08-06T00:05:16;3.80;;;0.80;;
68938;SDS011;59064;45.294;11.816;2023-08-06T00:07:48;2.40;;;0.80;;
68938;SDS011;59064;45.294;11.816;2023-08-06T00:10:14;2.40;;;1.00;;
68938;SDS011;59064;45.294;11.816;2023-08-06T00:12:42;1.90;;;0.80;;
68938;SDS011;59064;45.294;11.816;2023-08-06T00:15:08;2.40;;;0.80;;
68938;SDS011;59064;45.294;11.816;2023-08-06T00:17:34;3.20;;;0.90;;
68938;SDS011;59064;45.294;11.816;2023-08-06T00:20:01;3.80;;;0.80;;
68938;SDS011;59064;45.294;11.816;2023-08-06T00:22:35;2.40;;;0.90;;
68938;SDS011;59064;45.294;11.816;2023-08-06T00:25:03;2.90;;;0.90;;
68938;SDS011;59064;45.294;11.816;2023-08-06T00:27:29;1.80;;;0.70;;
68938;SDS011;59064;45.294;11.816;2023-08-06T00:29:55;1.60;;;0.50;;
68938;SDS011;59064;45.294;11.816;2023-08-06T00:32:21;1.50;;;0.60;;
68938;SDS011;59064;45.294;11.816;2023-08-06T00:34:47;2.50;;;0.80;;
68938;SDS011;59064;45.294;11.816;2023-08-06T00:37:18;2.30;;;0.80;;
68938;SDS011;59064;45.294;11.816;2023-08-06T00:39:44;2.50;;;0.70;;
68938;SDS011;59064;45.294;11.816;2023-08-06T00:42:11;2.30;;;0.60;;
68938;SDS011;59064;45.294;11.816;2023-08-06T00:44:37;1.70;;;0.60;;
68938;SDS011;59064;45.294;11.816;2023-08-06T00:47:04;1.80;;;0.50;;
68938;SDS011;59064;45.294;11.816;2023-08-06T00:49:31;1.40;;;0.50;;
68938;SDS011;59064;45.294;11.816;2023-08-06T00:51:57;1.60;;;0.60;;
68938;SDS011;59064;45.294;11.816;2023-08-06T00:54:23;1.60;;;0.50;;
68938;SDS011;59064;45.294;11.816;2023-08-06T00:56:50;1.20;;;0.40;;
68938;SDS011;59064;45.294;11.816;2023-08-06T00:59:15;1.60;;;0.60;;
68938;SDS011;59064;45.294;11.816;2023-08-06T01:01:41;1.60;;;0.50;;
68938;SDS011;59064;45.294;11.816;2023-08-06T01:04:07;2.20;;;0.90;;
68938;SDS011;59064;45.294;11.816;2023-08-06T01:15:21;2.60;;;0.90;;
68938;SDS011;59064;45.294;11.816;2023-08-06T01:17:49;2.10;;;0.60;;
68938;SDS011;59064;45.294;11.816;2023-08-06T01:20:15;2.50;;;0.60;;
68938;SDS011;59064;45.294;11.816;2023-08-06T01:22:41;1.60;;;0.60;;
68938;SDS011;59064;45.294;11.816;2023-08-06T01:25:06;2.50;;;0.70;;
68938;SDS011;59064;45.294;11.816;2023-08-06T01:27:58;2.00;;;0.90;;
68938;SDS011;59064;45.294;11.816;2023-08-06T01:30:29;3.20;;;0.70;;
68938;SDS011;59064;45.294;11.816;2023-08-06T01:33:04;2.30;;;1.00;;
68938;SDS011;59064;45.294;11.816;2023-08-06T01:35:31;1.90;;;0.80;;
68938;SDS011;59064;45.294;11.816;2023-08-06T01:37:59;2.70;;;0.80;;
68938;SDS011;59064;45.294;11.816;2023-08-06T01:40:25;2.30;;;0.80;;
68938;SDS011;59064;45.294;11.816;2023-08-06T01:42:52;2.10;;;0.90;;
68938;SDS011;59064;45.294;11.816;2023-08-06T01:45:17;1.80;;;0.80;;
68938;SDS011;59064;45.294;11.816;2023-08-06T01:47:43;2.20;;;0.70;;
68938;SDS011;59064;45.294;11.816;2023-08-06T01:50:09;2.80;;;1.00;;
68938;SDS011;59064;45.294;11.816;2023-08-06T01:52:34;2.00;;;0.90;;
68938;SDS011;59064;45.294;11.816;2023-08-06T01:55:00;2.00;;;0.70;;
68938;SDS011;59064;45.294;11.816;2023-08-06T01:57:25;1.70;;;0.80;;
68938;SDS011;59064;45.294;11.816;2023-08-06T01:59:51;1.70;;;0.70;;
68938;SDS011;59064;45.294;11.816;2023-08-06T02:02:16;1.80;;;0.80;;
68938;SDS011;59064;45.294;11.816;2023-08-06T02:04:42;2.70;;;0.80;;
68938;SDS011;59064;45.294;11.816;2023-08-06T02:07:08;2.10;;;0.70;;
68938;SDS011;59064;45.294;11.816;2023-08-06T02:09:33;2.00;;;0.80;;
68938;SDS011;59064;45.294;11.816;2023-08-06T02:12:00;2.70;;;1.20;;
68938;SDS011;59064;45.294;11.816;2023-08-06T02:14:26;2.30;;;1.10;;
68938;SDS011;59064;45.294;11.816;2023-08-06T02:16:51;2.80;;;1.10;;
68938;SDS011;59064;45.294;11.816;2023-08-06T02:19:17;2.00;;;0.90;;
68938;SDS011;59064;45.294;11.816;2023-08-06T02:21:43;2.30;;;1.00;;
68938;SDS011;59064;45.294;11.816;2023-08-06T02:24:08;4.10;;;1.40;;
68938;SDS011;59064;45.294;11.816;2023-08-06T02:26:34;4.40;;;1.40;;
68938;SDS011;59064;45.294;11.816;2023-08-06T02:28:59;3.60;;;1.60;;
68938;SDS011;59064;45.294;11.816;2023-08-06T02:31:25;5.30;;;1.90;;
68938;SDS011;59064;45.294;11.816;2023-08-06T02:33:50;5.50;;;2.30;;
68938;SDS011;59064;45.294;11.816;2023-08-06T02:36:16;4.60;;;2.30;;
68938;SDS011;59064;45.294;11.816;2023-08-06T02:38:41;4.30;;;2.70;;
68938;SDS011;59064;45.294;11.816;2023-08-06T02:41:07;4.90;;;2.50;;
68938;SDS011;59064;45.294;11.816;2023-08-06T02:43:32;5.70;;;3.40;;
68938;SDS011;59064;45.294;11.816;2023-08-06T02:45:59;4.40;;;2.80;;
68938;SDS011;59064;45.294;11.816;2023-08-06T02:48:25;5.00;;;3.30;;
68938;SDS011;59064;45.294;11.816;2023-08-06T02:50:52;6.90;;;4.10;;
68938;SDS011;59064;45.294;11.816;2023-08-06T02:53:18;5.60;;;4.00;;
68938;SDS011;59064;45.294;11.816;2023-08-06T02:55:47;6.80;;;4.50;;
68938;SDS011;59064;45.294;11.816;2023-08-06T02:58:14;7.20;;;4.40;;
68938;SDS011;59064;45.294;11.816;2023-08-06T03:00:40;7.80;;;5.00;;
68938;SDS011;59064;45.294;11.816;2023-08-06T03:03:06;7.40;;;4.80;;
68938;SDS011;59064;45.294;11.816;2023-08-06T03:05:31;7.80;;;5.60;;
68938;SDS011;59064;45.294;11.816;2023-08-06T03:07:57;7.60;;;5.30;;
68938;SDS011;59064;45.294;11.816;2023-08-06T03:10:22;8.60;;;5.50;;
68938;SDS011;59064;45.294;11.816;2023-08-06T03:12:48;7.60;;;5.60;;
68938;SDS011;59064;45.294;11.816;2023-08-06T03:15:14;7.60;;;5.50;;
68938;SDS011;59064;45.294;11.816;2023-08-06T03:17:40;9.40;;;5.60;;
68938;SDS011;59064;45.294;11.816;2023-08-06T03:20:06;6.80;;;4.40;;
68938;SDS011;59064;45.294;11.816;2023-08-06T03:22:32;8.30;;;5.00;;
68938;SDS011;59064;45.294;11.816;2023-08-06T03:24:57;9.60;;;5.60;;
68938;SDS011;59064;45.294;11.816;2023-08-06T03:27:23;7.90;;;5.70;;
68938;SDS011;59064;45.294;11.816;2023-08-06T03:29:49;9.10;;;5.90;;
68938;SDS011;59064;45.294;11.816;2023-08-06T03:32:15;8.50;;;6.30;;
68938;SDS011;59064;45.294;11.816;2023-08-06T03:34:41;8.30;;;5.90;;
68938;SDS011;59064;45.294;11.816;2023-08-06T03:37:07;7.80;;;6.00;;
68938;SDS011;59064;45.294;11.816;2023-08-06T03:39:32;8.60;;;5.80;;
68938;SDS011;59064;45.294;11.816;2023-08-06T03:41:58;7.90;;;5.70;;
68938;SDS011;59064;45.294;11.816;2023-08-06T03:44:23;8.80;;;6.20;;
68938;SDS011;59064;45.294;11.816;2023-08-06T03:46:49;7.80;;;6.10;;
68938;SDS011;59064;45.294;11.816;2023-08-06T03:49:14;9.40;;;6.40;;
68938;SDS011;59064;45.294;11.816;2023-08-06T03:51:40;7.60;;;5.70;;
68938;SDS011;59064;45.294;11.816;2023-08-06T03:54:05;6.40;;;5.10;;
68938;SDS011;59064;45.294;11.816;2023-08-06T03:56:31;9.80;;;6.20;;
68938;SDS011;59064;45.294;11.816;2023-08-06T03:58:56;10.00;;;6.50;;
68938;SDS011;59064;45.294;11.816;2023-08-06T04:01:22;18.90;;;10.30;;
68938;SDS011;59064;45.294;11.816;2023-08-06T04:03:48;19.80;;;11.40;;
68938;SDS011;59064;45.294;11.816;2023-08-06T04:06:13;20.90;;;11.70;;
68938;SDS011;59064;45.294;11.816;2023-08-06T04:08:39;16.60;;;8.80;;
68938;SDS011;59064;45.294;11.816;2023-08-06T04:11:04;15.20;;;8.70;;
68938;SDS011;59064;45.294;11.816;2023-08-06T04:13:30;14.30;;;8.00;;
68938;SDS011;59064;45.294;11.816;2023-08-06T04:15:55;12.20;;;7.50;;
68938;SDS011;59064;45.294;11.816;2023-08-06T04:18:27;13.40;;;8.00;;
68938;SDS011;59064;45.294;11.816;2023-08-06T04:20:53;10.40;;;7.20;;
68938;SDS011;59064;45.294;11.816;2023-08-06T04:23:20;9.40;;;7.00;;
68938;SDS011;59064;45.294;11.816;2023-08-06T04:25:46;11.40;;;6.80;;
68938;SDS011;59064;45.294;11.816;2023-08-06T04:28:11;9.60;;;7.50;;
68938;SDS011;59064;45.294;11.816;2023-08-06T04:30:37;10.70;;;7.00;;
68938;SDS011;59064;45.294;11.816;2023-08-06T04:33:03;10.00;;;6.50;;
68938;SDS011;59064;45.294;11.816;2023-08-06T04:35:30;9.50;;;6.60;;
68938;SDS011;59064;45.294;11.816;2023-08-06T04:37:55;16.60;;;11.10;;
68938;SDS011;59064;45.294;11.816;2023-08-06T04:40:21;15.50;;;10.10;;
68938;SDS011;59064;45.294;11.816;2023-08-06T04:42:46;12.60;;;9.20;;
68938;SDS011;59064;45.294;11.816;2023-08-06T04:45:12;10.60;;;7.60;;
68938;SDS011;59064;45.294;11.816;2023-08-06T04:47:38;10.90;;;7.70;;
68938;SDS011;59064;45.294;11.816;2023-08-06T04:50:07;10.00;;;7.30;;
68938;SDS011;59064;45.294;11.816;2023-08-06T04:52:32;10.10;;;7.40;;
68938;SDS011;59064;45.294;11.816;2023-08-06T04:54:58;11.50;;;7.60;;
68938;SDS011;59064;45.294;11.816;2023-08-06T04:57:23;12.60;;;7.40;;
68938;SDS011;59064;45.294;11.816;2023-08-06T04:59:49;12.00;;;7.70;;
68938;SDS011;59064;45.294;11.816;2023-08-06T05:02:15;12.80;;;8.30;;
68938;SDS011;59064;45.294;11.816;2023-08-06T05:04:40;12.60;;;9.10;;
68938;SDS011;59064;45.294;11.816;2023-08-06T05:07:06;12.70;;;8.90;;
68938;SDS011;59064;45.294;11.816;2023-08-06T05:09:32;13.10;;;9.50;;
68938;SDS011;59064;45.294;11.816;2023-08-06T05:12:00;12.40;;;8.10;;
68938;SDS011;59064;45.294;11.816;2023-08-06T05:14:27;11.50;;;7.50;;
68938;SDS011;59064;45.294;11.816;2023-08-06T05:16:53;9.10;;;6.70;;
68938;SDS011;59064;45.294;11.816;2023-08-06T05:19:18;9.90;;;6.90;;
68938;SDS011;59064;45.294;11.816;2023-08-06T05:21:44;8.30;;;6.20;;
68938;SDS011;59064;45.294;11.816;2023-08-06T05:24:09;8.30;;;5.80;;
68938;SDS011;59064;45.294;11.816;2023-08-06T05:26:35;8.40;;;5.70;;
68938;SDS011;59064;45.294;11.816;2023-08-06T05:29:01;7.40;;;5.50;;
68938;SDS011;59064;45.294;11.816;2023-08-06T05:31:26;8.00;;;5.70;;
68938;SDS011;59064;45.294;11.816;2023-08-06T05:33:54;8.90;;;5.40;;
68938;SDS011;59064;45.294;11.816;2023-08-06T05:36:20;8.40;;;5.70;;
68938;SDS011;59064;45.294;11.816;2023-08-06T05:38:47;6.10;;;4.60;;
68938;SDS011;59064;45.294;11.816;2023-08-06T05:41:13;7.30;;;5.00;;
68938;SDS011;59064;45.294;11.816;2023-08-06T05:43:38;6.60;;;4.80;;
68938;SDS011;59064;45.294;11.816;2023-08-06T05:46:04;7.50;;;5.20;;
68938;SDS011;59064;45.294;11.816;2023-08-06T05:48:30;8.70;;;5.50;;
68938;SDS011;59064;45.294;11.816;2023-08-06T05:50:57;7.90;;;5.20;;
68938;SDS011;59064;45.294;11.816;2023-08-06T05:53:23;9.40;;;5.00;;
68938;SDS011;59064;45.294;11.816;2023-08-06T05:55:50;6.80;;;4.90;;
68938;SDS011;59064;45.294;11.816;2023-08-06T05:58:15;7.10;;;4.30;;
68938;SDS011;59064;45.294;11.816;2023-08-06T06:00:45;6.30;;;4.20;;
68938;SDS011;59064;45.294;11.816;2023-08-06T06:03:11;7.00;;;4.60;;
68938;SDS011;59064;45.294;11.816;2023-08-06T06:05:39;6.80;;;4.70;;
68938;SDS011;59064;45.294;11.816;2023-08-06T06:08:05;7.10;;;4.90;;
68938;SDS011;59064;45.294;11.816;2023-08-06T06:10:30;6.80;;;4.40;;
68938;SDS011;59064;45.294;11.816;2023-08-06T06:12:56;7.10;;;4.70;;
68938;SDS011;59064;45.294;11.816;2023-08-06T06:15:22;6.40;;;4.30;;
68938;SDS011;59064;45.294;11.816;2023-08-06T06:17:47;5.10;;;3.70;;
68938;SDS011;59064;45.294;11.816;2023-08-06T06:20:13;6.40;;;4.40;;
68938;SDS011;59064;45.294;11.816;2023-08-06T06:22:39;6.80;;;4.10;;
68938;SDS011;59064;45.294;11.816;2023-08-06T06:25:05;6.50;;;3.80;;
68938;SDS011;59064;45.294;11.816;2023-08-06T06:27:31;5.80;;;3.40;;
68938;SDS011;59064;45.294;11.816;2023-08-06T06:29:56;6.00;;;4.10;;
68938;SDS011;59064;45.294;11.816;2023-08-06T06:32:22;5.90;;;3.80;;
68938;SDS011;59064;45.294;11.816;2023-08-06T06:34:48;5.80;;;3.60;;
68938;SDS011;59064;45.294;11.816;2023-08-06T06:37:13;4.50;;;2.80;;
68938;SDS011;59064;45.294;11.816;2023-08-06T06:39:39;6.50;;;3.60;;
68938;SDS011;59064;45.294;11.816;2023-08-06T06:42:05;6.50;;;4.00;;
68938;SDS011;59064;45.294;11.816;2023-08-06T06:44:30;6.10;;;2.70;;
68938;SDS011;59064;45.294;11.816;2023-08-06T06:46:56;4.60;;;2.60;;
68938;SDS011;59064;45.294;11.816;2023-08-06T06:49:21;5.20;;;3.40;;
68938;SDS011;59064;45.294;11.816;2023-08-06T06:51:47;6.00;;;3.10;;
68938;SDS011;59064;45.294;11.816;2023-08-06T06:54:12;4.30;;;2.50;;
68938;SDS011;59064;45.294;11.816;2023-08-06T06:56:38;4.50;;;2.50;;
68938;SDS011;59064;45.294;11.816;2023-08-06T06:59:03;4.60;;;2.30;;
68938;SDS011;59064;45.294;11.816;2023-08-06T07:01:29;4.40;;;2.40;;
68938;SDS011;59064;45.294;11.816;2023-08-06T07:03:54;4.00;;;2.10;;
68938;SDS011;59064;45.294;11.816;2023-08-06T07:06:20;4.30;;;2.50;;
68938;SDS011;59064;45.294;11.816;2023-08-06T07:08:46;4.30;;;2.30;;
68938;SDS011;59064;45.294;11.816;2023-08-06T07:11:11;3.60;;;1.70;;
68938;SDS011;59064;45.294;11.816;2023-08-06T07:13:37;4.00;;;2.00;;
68938;SDS011;59064;45.294;11.816;2023-08-06T07:16:02;2.90;;;1.30;;
68938;SDS011;59064;45.294;11.816;2023-08-06T07:18:29;3.60;;;1.10;;
68938;SDS011;59064;45.294;11.816;2023-08-06T07:20:55;2.50;;;0.80;;
68938;SDS011;59064;45.294;11.816;2023-08-06T07:23:22;2.60;;;0.80;;
68938;SDS011;59064;45.294;11.816;2023-08-06T07:25:49;2.10;;;0.90;;
68938;SDS011;59064;45.294;11.816;2023-08-06T07:28:15;3.10;;;1.00;;
68938;SDS011;59064;45.294;11.816;2023-08-06T07:30:42;1.90;;;0.60;;
68938;SDS011;59064;45.294;11.816;2023-08-06T07:33:09;1.50;;;0.60;;
68938;SDS011;59064;45.294;11.816;2023-08-06T07:35:35;1.80;;;0.80;;
68938;SDS011;59064;45.294;11.816;2023-08-06T07:38:02;3.20;;;0.80;;
68938;SDS011;59064;45.294;11.816;2023-08-06T07:40:28;1.30;;;0.50;;
68938;SDS011;59064;45.294;11.816;2023-08-06T07:42:54;1.30;;;0.30;;
68938;SDS011;59064;45.294;11.816;2023-08-06T07:45:20;1.00;;;0.40;;
68938;SDS011;59064;45.294;11.816;2023-08-06T07:47:46;1.00;;;0.40;;
68938;SDS011;59064;45.294;11.816;2023-08-06T07:50:12;0.90;;;0.30;;
68938;SDS011;59064;45.294;11.816;2023-08-06T07:52:38;0.60;;;0.20;;
68938;SDS011;59064;45.294;11.816;2023-08-06T07:55:04;0.50;;;0.20;;
68938;SDS011;59064;45.294;11.816;2023-08-06T07:57:31;1.30;;;0.30;;
68938;SDS011;59064;45.294;11.816;2023-08-06T07:59:58;0.90;;;0.30;;
68938;SDS011;59064;45.294;11.816;2023-08-06T08:02:24;1.00;;;0.20;;
68938;SDS011;59064;45.294;11.816;2023-08-06T08:04:50;0.80;;;0.20;;
68938;SDS011;59064;45.294;11.816;2023-08-06T08:07:16;0.70;;;0.30;;
68938;SDS011;59064;45.294;11.816;2023-08-06T08:09:41;0.60;;;0.20;;
68938;SDS011;59064;45.294;11.816;2023-08-06T08:12:07;1.20;;;0.30;;
68938;SDS011;59064;45.294;11.816;2023-08-06T08:14:33;0.70;;;0.20;;
68938;SDS011;59064;45.294;11.816;2023-08-06T08:17:03;0.80;;;0.20;;
68938;SDS011;59064;45.294;11.816;2023-08-06T08:19:31;1.50;;;0.30;;
68938;SDS011;59064;45.294;11.816;2023-08-06T08:21:57;1.10;;;0.20;;
68938;SDS011;59064;45.294;11.816;2023-08-06T08:24:23;1.00;;;0.30;;
68938;SDS011;59064;45.294;11.816;2023-08-06T08:26:50;1.00;;;0.30;;
68938;SDS011;59064;45.294;11.816;2023-08-06T08:29:16;0.90;;;0.30;;
68938;SDS011;59064;45.294;11.816;2023-08-06T08:31:42;1.10;;;0.30;;
68938;SDS011;59064;45.294;11.816;2023-08-06T08:34:08;0.60;;;0.30;;
68938;SDS011;59064;45.294;11.816;2023-08-06T08:36:34;0.80;;;0.20;;
68938;SDS011;59064;45.294;11.816;2023-08-06T08:39:00;1.40;;;0.30;;
68938;SDS011;59064;45.294;11.816;2023-08-06T08:41:29;1.20;;;0.30;;
68938;SDS011;59064;45.294;11.816;2023-08-06T08:43:55;0.60;;;0.30;;
68938;SDS011;59064;45.294;11.816;2023-08-06T08:46:21;0.50;;;0.20;;
68938;SDS011;59064;45.294;11.816;2023-08-06T08:48:47;1.40;;;0.30;;
68938;SDS011;59064;45.294;11.816;2023-08-06T08:51:13;1.50;;;0.30;;
68938;SDS011;59064;45.294;11.816;2023-08-06T08:53:39;0.80;;;0.30;;
68938;SDS011;59064;45.294;11.816;2023-08-06T08:56:06;0.80;;;0.30;;
68938;SDS011;59064;45.294;11.816;2023-08-06T08:58:32;0.70;;;0.30;;
68938;SDS011;59064;45.294;11.816;2023-08-06T09:00:58;1.60;;;0.30;;
68938;SDS011;59064;45.294;11.816;2023-08-06T09:03:23;1.00;;;0.40;;
68938;SDS011;59064;45.294;11.816;2023-08-06T09:05:53;1.30;;;0.40;;
68938;SDS011;59064;45.294;11.816;2023-08-06T09:08:27;4.80;;;2.10;;
68938;SDS011;59064;45.294;11.816;2023-08-06T09:11:02;4.20;;;1.70;;
68938;SDS011;59064;45.294;11.816;2023-08-06T09:13:28;1.80;;;0.40;;
68938;SDS011;59064;45.294;11.816;2023-08-06T09:15:53;1.10;;;0.40;;
68938;SDS011;59064;45.294;11.816;2023-08-06T09:18:26;1.80;;;0.40;;
68938;SDS011;59064;45.294;11.816;2023-08-06T09:20:55;1.30;;;0.30;;
68938;SDS011;59064;45.294;11.816;2023-08-06T09:23:28;1.80;;;0.30;;
68938;SDS011;59064;45.294;11.816;2023-08-06T09:25:56;1.80;;;0.40;;
68938;SDS011;59064;45.294;11.816;2023-08-06T09:28:22;1.90;;;0.40;;
68938;SDS011;59064;45.294;11.816;2023-08-06T09:30:49;2.00;;;0.50;;
68938;SDS011;59064;45.294;11.816;2023-08-06T09:33:18;1.00;;;0.40;;
68938;SDS011;59064;45.294;11.816;2023-08-06T09:35:46;2.00;;;0.50;;
68938;SDS011;59064;45.294;11.816;2023-08-06T09:38:12;1.50;;;0.50;;
68938;SDS011;59064;45.294;11.816;2023-08-06T09:40:39;1.30;;;0.40;;
68938;SDS011;59064;45.294;11.816;2023-08-06T09:43:06;1.70;;;0.50;;
68938;SDS011;59064;45.294;11.816;2023-08-06T09:45:36;2.30;;;0.60;;
68938;SDS011;59064;45.294;11.816;2023-08-06T09:48:04;1.60;;;0.50;;
68938;SDS011;59064;45.294;11.816;2023-08-06T09:50:33;4.70;;;1.40;;
68938;SDS011;59064;45.294;11.816;2023-08-06T09:53:02;3.40;;;0.90;;
68938;SDS011;59064;45.294;11.816;2023-08-06T09:55:29;2.50;;;0.80;;
68938;SDS011;59064;45.294;11.816;2023-08-06T09:57:55;3.40;;;0.70;;
68938;SDS011;59064;45.294;11.816;2023-08-06T10:00:22;2.20;;;0.90;;
68938;SDS011;59064;45.294;11.816;2023-08-06T10:02:48;2.10;;;0.80;;
68938;SDS011;59064;45.294;11.816;2023-08-06T10:05:16;4.10;;;0.90;;
68938;SDS011;59064;45.294;11.816;2023-08-06T10:07:43;3.90;;;1.00;;
68938;SDS011;59064;45.294;11.816;2023-08-06T10:10:10;2.50;;;0.70;;
68938;SDS011;59064;45.294;11.816;2023-08-06T10:12:39;2.70;;;1.00;;
68938;SDS011;59064;45.294;11.816;2023-08-06T10:15:10;2.80;;;1.30;;
68938;SDS011;59064;45.294;11.816;2023-08-06T10:17:40;2.70;;;0.80;;
68938;SDS011;59064;45.294;11.816;2023-08-06T10:20:08;2.60;;;0.90;;
68938;SDS011;59064;45.294;11.816;2023-08-06T10:22:34;2.20;;;0.90;;
68938;SDS011;59064;45.294;11.816;2023-08-06T10:25:01;4.10;;;1.00;;
68938;SDS011;59064;45.294;11.816;2023-08-06T10:33:02;2.00;;;0.90;;
68938;SDS011;59064;45.294;11.816;2023-08-06T10:35:36;2.40;;;0.70;;
68938;SDS011;59064;45.294;11.816;2023-08-06T10:40:41;2.60;;;1.00;;
68938;SDS011;59064;45.294;11.816;2023-08-06T10:43:34;3.40;;;1.00;;
68938;SDS011;59064;45.294;11.816;2023-08-06T10:46:03;2.20;;;0.80;;
68938;SDS011;59064;45.294;11.816;2023-08-06T10:48:41;2.10;;;0.90;;
68938;SDS011;59064;45.294;11.816;2023-08-06T10:51:12;2.70;;;0.80;;
68938;SDS011;59064;45.294;11.816;2023-08-06T10:53:46;2.40;;;1.00;;
68938;SDS011;59064;45.294;11.816;2023-08-06T10:56:22;3.40;;;1.10;;
68938;SDS011;59064;45.294;11.816;2023-08-06T10:58:49;3.10;;;1.10;;
68938;SDS011;59064;45.294;11.816;2023-08-06T11:01:16;3.70;;;1.20;;
68938;SDS011;59064;45.294;11.816;2023-08-06T11:03:43;3.20;;;1.20;;
68938;SDS011;59064;45.294;11.816;2023-08-06T11:06:10;5.00;;;1.40;;
68938;SDS011;59064;45.294;11.816;2023-08-06T11:08:40;3.50;;;1.30;;
68938;SDS011;59064;45.294;11.816;2023-08-06T11:11:15;2.30;;;1.10;;
68938;SDS011;59064;45.294;11.816;2023-08-06T11:13:42;3.80;;;1.30;;
68938;SDS011;59064;45.294;11.816;2023-08-06T11:16:16;3.30;;;1.20;;
68938;SDS011;59064;45.294;11.816;2023-08-06T11:18:46;2.90;;;0.90;;
68938;SDS011;59064;45.294;11.816;2023-08-06T11:21:12;2.80;;;1.20;;
68938;SDS011;59064;45.294;11.816;2023-08-06T11:23:38;2.70;;;1.00;;
68938;SDS011;59064;45.294;11.816;2023-08-06T11:26:05;2.20;;;0.80;;
68938;SDS011;59064;45.294;11.816;2023-08-06T11:28:32;3.80;;;2.10;;
68938;SDS011;59064;45.294;11.816;2023-08-06T11:30:58;4.30;;;2.00;;
68938;SDS011;59064;45.294;11.816;2023-08-06T11:33:28;4.10;;;2.30;;
68938;SDS011;59064;45.294;11.816;2023-08-06T11:35:55;4.20;;;1.20;;
68938;SDS011;59064;45.294;11.816;2023-08-06T11:38:21;3.50;;;1.20;;
68938;SDS011;59064;45.294;11.816;2023-08-06T11:40:50;3.20;;;1.10;;
68938;SDS011;59064;45.294;11.816;2023-08-06T11:43:18;3.40;;;1.10;;
68938;SDS011;59064;45.294;11.816;2023-08-06T11:45:45;1.70;;;0.80;;
68938;SDS011;59064;45.294;11.816;2023-08-06T11:48:12;2.00;;;0.90;;
68938;SDS011;59064;45.294;11.816;2023-08-06T11:50:38;3.00;;;1.10;;
68938;SDS011;59064;45.294;11.816;2023-08-06T11:53:04;2.90;;;1.20;;
68938;SDS011;59064;45.294;11.816;2023-08-06T11:55:30;4.60;;;1.50;;
68938;SDS011;59064;45.294;11.816;2023-08-06T11:57:56;2.80;;;1.20;;
68938;SDS011;59064;45.294;11.816;2023-08-06T12:00:24;3.40;;;1.20;;
68938;SDS011;59064;45.294;11.816;2023-08-06T12:02:51;2.80;;;1.10;;
68938;SDS011;59064;45.294;11.816;2023-08-06T12:05:30;3.10;;;1.10;;
68938;SDS011;59064;45.294;11.816;2023-08-06T12:07:59;3.90;;;1.50;;
68938;SDS011;59064;45.294;11.816;2023-08-06T12:10:28;2.80;;;1.30;;
68938;SDS011;59064;45.294;11.816;2023-08-06T12:12:56;2.30;;;1.10;;
68938;SDS011;59064;45.294;11.816;2023-08-06T12:15:22;3.70;;;1.30;;
68938;SDS011;59064;45.294;11.816;2023-08-06T12:17:48;2.70;;;1.10;;
68938;SDS011;59064;45.294;11.816;2023-08-06T12:20:13;2.60;;;1.20;;
68938;SDS011;59064;45.294;11.816;2023-08-06T12:22:48;4.40;;;1.40;;
68938;SDS011;59064;45.294;11.816;2023-08-06T12:25:14;3.40;;;1.30;;
68938;SDS011;59064;45.294;11.816;2023-08-06T12:27:41;3.60;;;1.40;;
68938;SDS011;59064;45.294;11.816;2023-08-06T12:30:08;4.20;;;1.30;;
68938;SDS011;59064;45.294;11.816;2023-08-06T12:32:34;3.20;;;1.70;;
68938;SDS011;59064;45.294;11.816;2023-08-06T12:35:00;2.50;;;1.30;;
68938;SDS011;59064;45.294;11.816;2023-08-06T12:37:26;4.30;;;1.30;;
68938;SDS011;59064;45.294;11.816;2023-08-06T12:39:52;3.10;;;1.30;;
68938;SDS011;59064;45.294;11.816;2023-08-06T12:42:18;2.60;;;1.30;;
68938;SDS011;59064;45.294;11.816;2023-08-06T12:44:44;2.90;;;1.10;;
68938;SDS011;59064;45.294;11.816;2023-08-06T12:47:10;3.30;;;1.50;;
68938;SDS011;59064;45.294;11.816;2023-08-06T12:49:36;3.20;;;1.40;;
68938;SDS011;59064;45.294;11.816;2023-08-06T12:52:02;2.80;;;1.40;;
68938;SDS011;59064;45.294;11.816;2023-08-06T12:54:30;4.20;;;1.40;;
68938;SDS011;59064;45.294;11.816;2023-08-06T12:57:01;3.60;;;1.40;;
68938;SDS011;59064;45.294;11.816;2023-08-06T12:59:28;3.20;;;1.40;;
68938;SDS011;59064;45.294;11.816;2023-08-06T13:01:53;3.20;;;1.30;;
68938;SDS011;59064;45.294;11.816;2023-08-06T13:04:19;2.30;;;1.00;;
68938;SDS011;59064;45.294;11.816;2023-08-06T13:06:45;3.30;;;1.30;;
68938;SDS011;59064;45.294;11.816;2023-08-06T13:09:10;2.40;;;1.10;;
68938;SDS011;59064;45.294;11.816;2023-08-06T13:11:36;6.40;;;1.50;;
68938;SDS011;59064;45.294;11.816;2023-08-06T13:16:32;2.40;;;1.10;;
68938;SDS011;59064;45.294;11.816;2023-08-06T13:18:59;3.00;;;1.20;;
68938;SDS011;59064;45.294;11.816;2023-08-06T13:21:32;3.80;;;1.50;;
68938;SDS011;59064;45.294;11.816;2023-08-06T13:24:02;3.80;;;1.60;;
68938;SDS011;59064;45.294;11.816;2023-08-06T13:26:31;2.50;;;1.20;;
68938;SDS011;59064;45.294;11.816;2023-08-06T13:28:57;4.20;;;1.60;;
68938;SDS011;59064;45.294;11.816;2023-08-06T13:31:24;3.00;;;1.50;;
68938;SDS011;59064;45.294;11.816;2023-08-06T13:33:51;2.90;;;1.30;;
68938;SDS011;59064;45.294;11.816;2023-08-06T13:36:17;2.90;;;1.30;;
68938;SDS011;59064;45.294;11.816;2023-08-06T13:38:42;3.30;;;1.30;;
68938;SDS011;59064;45.294;11.816;2023-08-06T13:41:08;5.20;;;1.40;;
68938;SDS011;59064;45.294;11.816;2023-08-06T13:43:34;2.70;;;1.40;;
68938;SDS011;59064;45.294;11.816;2023-08-06T13:45:59;3.10;;;1.40;;
68938;SDS011;59064;45.294;11.816;2023-08-06T13:48:25;2.90;;;1.30;;
68938;SDS011;59064;45.294;11.816;2023-08-06T13:50:51;4.40;;;1.30;;
68938;SDS011;59064;45.294;11.816;2023-08-06T13:53:16;2.80;;;1.30;;
68938;SDS011;59064;45.294;11.816;2023-08-06T13:55:42;2.40;;;1.10;;
68938;SDS011;59064;45.294;11.816;2023-08-06T13:58:07;2.80;;;1.20;;
68938;SDS011;59064;45.294;11.816;2023-08-06T14:00:35;2.20;;;1.00;;
68938;SDS011;59064;45.294;11.816;2023-08-06T14:03:01;3.30;;;1.00;;
68938;SDS011;59064;45.294;11.816;2023-08-06T14:05:27;2.40;;;0.90;;
68938;SDS011;59064;45.294;11.816;2023-08-06T14:07:53;2.60;;;1.00;;
68938;SDS011;59064;45.294;11.816;2023-08-06T14:10:18;2.60;;;0.90;;
68938;SDS011;59064;45.294;11.816;2023-08-06T14:12:44;2.50;;;0.90;;
68938;SDS011;59064;45.294;11.816;2023-08-06T14:15:10;2.50;;;0.90;;
68938;SDS011;59064;45.294;11.816;2023-08-06T14:17:36;3.30;;;1.00;;
68938;SDS011;59064;45.294;11.816;2023-08-06T14:20:03;3.00;;;1.10;;
68938;SDS011;59064;45.294;11.816;2023-08-06T14:22:30;2.80;;;1.20;;
68938;SDS011;59064;45.294;11.816;2023-08-06T14:24:59;2.70;;;0.90;;
68938;SDS011;59064;45.294;11.816;2023-08-06T14:27:24;2.90;;;1.20;;
68938;SDS011;59064;45.294;11.816;2023-08-06T14:29:50;2.70;;;1.10;;
68938;SDS011;59064;45.294;11.816;2023-08-06T14:32:16;2.80;;;1.10;;
68938;SDS011;59064;45.294;11.816;2023-08-06T14:34:46;3.30;;;0.80;;
68938;SDS011;59064;45.294;11.816;2023-08-06T14:37:11;3.50;;;1.00;;
68938;SDS011;59064;45.294;11.816;2023-08-06T14:39:37;2.50;;;1.00;;
68938;SDS011;59064;45.294;11.816;2023-08-06T14:42:04;2.70;;;1.00;;
68938;SDS011;59064;45.294;11.816;2023-08-06T14:44:30;2.80;;;1.00;;
68938;SDS011;59064;45.294;11.816;2023-08-06T14:46:55;3.10;;;0.80;;
68938;SDS011;59064;45.294;11.816;2023-08-06T14:49:21;3.30;;;0.90;;